Brohman, Michigan
Current Conditions -  °F | °C
As of 11:54 AM on Saturday 22 Nov 2014 (Local Time) from KRQB Reporting Station
Moderate Fog Moderate Fog  
Wind Chill: 31°   Ceiling: 200
Heat Index: 37°   Visibility: 0.5mi
Dew Point: 36°   Wind: 7mph
Humidity: 97%   Direction: 200°SSW
Pressure: 29.9"   Gusts: NA
Location:  43.69°N, 85.82°W
Report Text: KRQB 221654Z AUTO 20006KT 1/2SM FG OVC002 03/02 A2990 RMK AO2 T00250021
Loading
Personal Weather Stations






























Interactive Weather Map New forecast layout! Learn more

10-Day Weather Forecast

Advertisements
Track Severe Weather on mobile